Time;durP1;ratioP1;P1;durP2;ratioP2;P2;SDS_P1;SDS_P2;PMS_P1;PMS_P2;Temp;Humidity;BMP_temperature;BMP_pressure;BME280_temperature;BME280_humidity;BME280_pressure;Samples;Min_cycle;Max_cycle;Signal;HPM_P1;HPM_P2
2022/05/03 00:02:54;;;;;;;11.20;7.15;;;;;;;11.84;57.16;99842.41;10298817;28;20839;-82
2022/05/03 00:08:08;;;;;;;9.43;6.95;;;;;;;11.80;57.39;99842.72;10292147;28;20059;-82
2022/05/03 00:13:15;;;;;;;10.27;7.20;;;;;;;11.87;57.02;99841.34;10295139;28;20081;-82
2022/05/03 00:18:17;;;;;;;9.57;7.85;;;;;;;11.89;56.86;99847.31;10293006;28;20058;-82
2022/05/03 00:23:22;;;;;;;12.73;7.80;;;;;;;11.90;57.06;99849.88;10293081;28;20105;-82
2022/05/03 00:28:24;;;;;;;8.55;7.22;;;;;;;11.95;57.00;99841.66;10292515;28;20140;-82
2022/05/03 00:33:29;;;;;;;11.68;7.68;;;;;;;12.08;56.97;99839.91;10292936;28;20086;-82
2022/05/03 00:38:34;;;;;;;10.02;7.10;;;;;;;12.05;56.82;99840.97;10310469;28;20133;-82
2022/05/03 00:44:55;;;;;;;9.55;7.13;;;;;;;12.08;57.16;99839.91;10292501;28;20505;-82
2022/05/03 00:49:44;;;;;;;9.73;7.57;;;;;;;12.10;57.07;99843.28;10286059;28;20513;-82
2022/05/03 00:55:16;;;;;;;10.15;7.45;;;;;;;12.14;56.94;99842.97;10292451;28;20054;-82
2022/05/03 01:00:20;;;;;;;10.65;7.75;;;;;;;12.22;56.56;99837.22;10291452;28;20879;-82
2022/05/03 01:05:28;;;;;;;14.88;7.97;;;;;;;12.29;56.63;99841.13;10291707;28;20055;-82
2022/05/03 01:10:34;;;;;;;11.25;7.90;;;;;;;12.29;56.38;99841.13;10293141;28;20054;-82
2022/05/03 01:15:44;;;;;;;9.57;7.90;;;;;;;12.26;56.51;99841.28;10290299;28;20054;-82
2022/05/03 01:21:15;;;;;;;10.68;7.63;;;;;;;12.15;57.05;99839.41;10295187;28;20055;-83
2022/05/03 01:26:29;;;;;;;;;;;;;;;11.79;57.76;99835.78;10291517;28;20105;-82
2022/05/03 01:31:31;;;;;;;11.27;8.65;;;;;;;12.09;56.78;99836.34;10292215;28;19977;-82
2022/05/03 01:36:59;;;;;;;12.25;8.60;;;;;;;12.07;57.13;99841.69;10288641;28;20948;-82
2022/05/03 01:42:15;;;;;;;9.00;7.57;;;;;;;12.14;57.07;99831.63;10302913;28;20501;-82
2022/05/03 01:47:23;;;;;;;9.43;7.90;;;;;;;12.09;57.08;99831.09;10307315;28;20085;-82
2022/05/03 01:52:59;;;;;;;9.60;7.88;;;;;;;11.99;57.45;99827.41;10293886;28;20121;-82
2022/05/03 01:58:19;;;;;;;12.77;8.23;;;;;;;12.03;57.16;99827.13;10292242;28;20050;-82
2022/05/03 02:03:46;;;;;;;12.13;7.80;;;;;;;11.97;57.61;99824.06;10306595;28;20137;-82
2022/05/03 02:09:05;;;;;;;9.75;8.02;;;;;;;11.83;58.02;99826.75;10295714;28;20121;-82
2022/05/03 02:19:58;;;;;;;10.27;8.07;;;;;;;12.02;57.41;99816.75;10298414;28;20471;-82
2022/05/03 02:25:00;;;;;;;9.85;8.05;;;;;;;12.04;57.33;99810.47;10296751;28;20051;-82
2022/05/03 02:30:03;;;;;;;11.50;8.10;;;;;;;11.99;57.56;99806.44;10303922;28;20050;-82
2022/05/03 02:35:07;;;;;;;9.70;7.63;;;;;;;11.98;57.79;99826.59;10301616;28;20066;-82
2022/05/03 02:40:13;;;;;;;11.00;8.38;;;;;;;12.03;57.42;99821.03;10302823;28;20043;-83
2022/05/03 02:45:16;;;;;;;12.00;8.35;;;;;;;11.93;57.78;99819.97;10317492;28;20098;-82
2022/05/03 02:50:21;;;;;;;10.38;7.60;;;;;;;11.84;57.95;99824.06;10304699;28;20078;-82
2022/05/03 02:55:36;;;;;;;10.63;7.32;;;;;;;11.88;58.18;99816.84;10299567;28;20428;-82
2022/05/03 03:06:51;;;;;;;11.05;7.47;;;;;;;11.91;57.94;99816.63;10299693;28;20720;-82
2022/05/03 03:12:01;;;;;;;9.63;8.18;;;;;;;11.93;58.01;99814.72;10296314;28;21591;-82
2022/05/03 03:17:06;;;;;;;10.68;7.90;;;;;;;11.84;58.18;99816.22;10297313;28;20086;-82
2022/05/03 03:22:13;;;;;;;10.98;9.00;;;;;;;11.82;58.51;99812.00;10313208;28;20054;-82
2022/05/03 03:27:18;;;;;;;8.95;7.55;;;;;;;11.86;58.10;99813.47;10294857;28;20109;-82
2022/05/03 03:32:22;;;;;;;10.35;8.25;;;;;;;11.91;58.03;99812.22;10292789;28;20055;-82
2022/05/03 03:37:29;;;;;;;9.20;7.70;;;;;;;11.87;58.47;99808.13;10295828;28;20086;-82
2022/05/03 03:42:31;;;;;;;11.05;8.20;;;;;;;11.85;58.40;99811.78;10294607;28;20062;-82
2022/05/03 03:47:35;;;;;;;9.95;8.55;;;;;;;11.87;58.24;99807.28;10296662;28;20104;-82
2022/05/03 03:52:42;;;;;;;11.13;8.65;;;;;;;11.94;58.30;99804.16;10293629;28;20090;-82
2022/05/03 03:57:44;;;;;;;9.95;8.27;;;;;;;11.96;58.26;99804.06;10293918;28;20547;-82
2022/05/03 04:02:46;;;;;;;11.95;8.05;;;;;;;11.96;58.26;99806.69;10294166;28;20085;-82
2022/05/03 04:07:50;;;;;;;10.20;8.38;;;;;;;11.84;58.57;99813.59;10296364;28;20082;-81
2022/05/03 04:12:51;;;;;;;10.45;8.75;;;;;;;11.68;58.87;99817.31;10292635;28;20082;-81
2022/05/03 04:17:53;;;;;;;12.43;8.45;;;;;;;11.66;59.13;99813.97;10291372;28;20464;-81
2022/05/03 04:22:55;;;;;;;10.25;8.18;;;;;;;11.72;58.85;99822.22;10294509;28;20062;-81
2022/05/03 04:27:57;;;;;;;10.50;8.60;;;;;;;11.79;58.74;99820.91;10295038;28;20054;-81
2022/05/03 04:32:58;;;;;;;10.65;8.38;;;;;;;11.82;58.78;99820.72;10293823;28;20736;-81
2022/05/03 04:38:00;;;;;;;10.15;9.05;;;;;;;11.76;58.91;99822.88;10293844;28;20054;-81
2022/05/03 04:43:02;;;;;;;11.32;8.27;;;;;;;11.87;58.94;99833.47;10292076;28;20050;-82
2022/05/03 04:48:04;;;;;;;9.98;8.48;;;;;;;12.00;58.65;99839.59;10294202;28;20110;-81
2022/05/03 04:53:06;;;;;;;10.68;8.98;;;;;;;12.04;58.45;99849.78;10308445;28;20054;-81
2022/05/03 04:58:08;;;;;;;12.50;8.75;;;;;;;12.12;58.41;99850.09;10294262;28;20132;-81
2022/05/03 05:03:10;;;;;;;9.82;8.82;;;;;;;12.15;58.27;99854.28;10291631;28;20118;-81
2022/05/03 05:08:12;;;;;;;11.15;8.48;;;;;;;12.20;58.32;99856.59;10293307;28;20097;-82
2022/05/03 05:13:13;;;;;;;10.23;8.55;;;;;;;12.24;58.25;99858.06;10293238;28;20098;-81
2022/05/03 05:18:16;;;;;;;15.40;8.93;;;;;;;12.24;58.31;99864.16;10292686;28;20136;-81
2022/05/03 05:23:18;;;;;;;12.35;9.45;;;;;;;12.24;58.96;99865.94;10288909;28;20078;-82
2022/05/03 05:28:23;;;;;;;13.23;9.23;;;;;;;12.24;59.27;99868.56;10290591;28;20055;-81
2022/05/03 05:33:25;;;;;;;11.35;8.80;;;;;;;11.99;59.33;99864.13;10290445;28;20579;-82
2022/05/03 05:38:26;;;;;;;10.90;9.40;;;;;;;11.85;60.31;99861.56;10294114;28;20085;-82
2022/05/03 05:43:28;;;;;;;13.43;11.07;;;;;;;12.10;60.45;99864.25;10293431;28;20165;-83
2022/05/03 05:48:30;;;;;;;13.27;11.50;;;;;;;12.20;60.64;99872.31;10292773;28;20086;-82
2022/05/03 05:53:32;;;;;;;12.32;11.13;;;;;;;12.26;60.77;99878.00;10292405;28;20051;-83
2022/05/03 05:58:34;;;;;;;13.95;12.50;;;;;;;12.29;60.87;99872.59;10307194;28;20112;-83
2022/05/03 06:03:36;;;;;;;14.95;10.88;;;;;;;12.24;60.70;99884.28;10296740;28;20116;-83
2022/05/03 06:08:38;;;;;;;13.48;11.85;;;;;;;12.33;61.33;99884.56;10301542;28;20144;-82
2022/05/03 06:13:40;;;;;;;15.00;11.65;;;;;;;12.39;61.00;99889.41;10310071;28;20483;-82
2022/05/03 06:18:46;;;;;;;13.68;11.95;;;;;;;12.48;61.10;99890.53;10297630;28;20133;-83
2022/05/03 06:23:55;;;;;;;14.77;12.88;;;;;;;12.51;61.35;99896.44;10301127;28;20051;-83
2022/05/03 06:28:59;;;;;;;14.70;13.35;;;;;;;12.47;61.25;99902.81;10302955;28;20595;-83
2022/05/03 06:34:01;;;;;;;12.45;10.52;;;;;;;12.52;61.33;99905.09;10296159;28;20467;-83
2022/05/03 06:39:06;;;;;;;14.73;11.43;;;;;;;12.47;61.63;99913.31;10304452;28;20054;-83
2022/05/03 06:44:49;;;;;;;14.60;11.75;;;;;;;12.44;61.72;99917.91;10298849;28;20526;-83
2022/05/03 06:49:56;;;;;;;14.32;11.73;;;;;;;12.53;62.09;99915.53;10298522;28;20100;-82
2022/05/03 06:55:01;;;;;;;15.80;12.60;;;;;;;12.56;61.47;99922.31;10297950;28;21074;-83
2022/05/03 07:00:05;;;;;;;14.25;11.82;;;;;;;12.46;61.88;99918.66;10296212;28;20149;-83
2022/05/03 07:05:08;;;;;;;13.23;11.82;;;;;;;12.71;61.31;99922.13;10293997;28;20050;-82
2022/05/03 07:10:24;;;;;;;14.00;12.48;;;;;;;12.84;61.66;99927.38;10295615;28;20050;-82
2022/05/03 07:15:27;;;;;;;13.65;12.25;;;;;;;12.94;61.30;99926.63;10290534;28;20058;-82
2022/05/03 07:25:55;;;;;;;15.88;13.55;;;;;;;13.05;61.64;99931.13;10292326;28;20109;-83
2022/05/03 07:30:57;;;;;;;14.35;12.85;;;;;;;13.18;61.20;99925.84;10296322;28;20122;-83
2022/05/03 07:35:59;;;;;;;17.40;12.60;;;;;;;13.20;60.76;99931.84;10294099;28;20050;-82
2022/05/03 07:41:07;;;;;;;14.40;11.77;;;;;;;13.30;61.22;99923.22;10294522;28;20455;-81
2022/05/03 07:46:09;;;;;;;13.23;11.75;;;;;;;13.54;60.63;99929.38;10288798;28;20136;-81
2022/05/03 07:51:12;;;;;;;15.35;13.20;;;;;;;13.59;60.64;99931.66;10293133;28;20524;-82
2022/05/03 07:56:14;;;;;;;11.80;10.55;;;;;;;13.65;60.35;99942.59;10294464;28;20117;-82
2022/05/03 08:01:23;;;;;;;13.13;11.75;;;;;;;13.81;60.48;99944.94;10299294;28;20050;-83
2022/05/03 08:06:27;;;;;;;15.48;12.35;;;;;;;13.89;60.25;99947.00;10293831;28;20086;-82
2022/05/03 08:11:29;;;;;;;14.18;12.00;;;;;;;14.07;59.51;99946.50;10284989;28;20054;-82
2022/05/03 08:16:31;;;;;;;12.85;11.38;;;;;;;14.30;59.51;99950.03;10287391;28;20157;-82
2022/05/03 08:21:35;;;;;;;16.65;11.75;;;;;;;14.57;58.83;99948.84;10288975;28;20054;-81
2022/05/03 08:26:37;;;;;;;14.00;11.75;;;;;;;14.81;58.00;99955.81;10276294;28;20147;-81
2022/05/03 08:31:39;;;;;;;15.50;10.80;;;;;;;15.21;57.51;99954.41;10284880;28;20094;-81
2022/05/03 08:42:01;;;;;;;14.05;10.00;;;;;;;15.72;55.92;99952.94;10281898;28;20125;-82
2022/05/03 08:42:11;;;;;;;12.55;9.82;;;;;;;16.10;54.52;99960.38;10287239;28;20050;-82
2022/05/03 08:47:19;;;;;;;13.82;10.10;;;;;;;16.61;53.57;99958.72;10285689;28;20081;-81
2022/05/03 08:52:23;;;;;;;13.40;9.75;;;;;;;18.04;51.06;99955.78;10291503;28;20054;-81
2022/05/03 08:57:25;;;;;;;15.18;9.48;;;;;;;19.52;46.09;99944.50;10286719;28;20112;-81
2022/05/03 09:02:27;;;;;;;13.50;8.05;;;;;;;20.17;44.04;99943.38;10281930;28;20115;-81
2022/05/03 09:07:34;;;;;;;11.00;8.20;;;;;;;21.07;40.68;99941.22;10267196;28;20081;-82
2022/05/03 09:12:36;;;;;;;10.48;7.63;;;;;;;21.18;40.33;99946.28;10283656;28;20104;-82
2022/05/03 09:17:46;;;;;;;10.40;7.15;;;;;;;22.15;36.33;99938.66;10283327;28;20117;-82
2022/05/03 09:28:12;;;;;;;13.23;8.25;;;;;;;21.42;37.08;99945.56;10267086;28;20130;-82
2022/05/03 09:33:22;;;;;;;14.00;8.18;;;;;;;21.78;35.53;99939.06;10279946;28;20069;-81
2022/05/03 09:38:28;;;;;;;9.13;7.60;;;;;;;21.84;35.94;99941.88;10286187;28;20058;-83
2022/05/03 09:43:30;;;;;;;11.23;7.13;;;;;;;21.42;35.70;99949.06;10284222;28;20093;-80
2022/05/03 09:48:54;;;;;;;12.15;6.88;;;;;;;21.74;36.13;99948.38;10286700;28;20058;-80
2022/05/03 09:54:00;;;;;;;11.98;6.72;;;;;;;21.91;33.58;99942.06;10284608;28;20155;-80
2022/05/03 09:59:09;;;;;;;9.48;7.18;;;;;;;21.07;34.73;99942.06;10291872;28;20126;-80
2022/05/03 10:04:13;;;;;;;14.33;6.90;;;;;;;20.91;35.83;99943.78;10286549;28;20054;-80
2022/05/03 10:09:15;;;;;;;12.55;7.22;;;;;;;20.73;36.16;99938.53;10284453;28;20063;-80
2022/05/03 10:14:17;;;;;;;11.73;7.82;;;;;;;20.42;36.40;99937.28;10289430;28;20129;-80
2022/05/03 10:24:55;;;;;;;11.57;7.22;;;;;;;20.76;36.11;99924.94;10276798;28;20050;-80
2022/05/03 10:30:20;;;;;;;16.17;7.60;;;;;;;20.51;35.46;99920.41;10284763;28;20286;-80
2022/05/03 10:35:34;;;;;;;13.52;7.60;;;;;;;21.16;35.54;99918.16;10291510;28;20105;-80
2022/05/03 10:40:44;;;;;;;12.15;7.63;;;;;;;21.24;35.42;99915.53;10293529;28;20094;-80
2022/05/03 10:45:53;;;;;;;11.02;7.32;;;;;;;21.34;37.33;99913.63;10292721;28;20510;-80
2022/05/03 10:50:58;;;;;;;184.55;24.42;;;;;;;21.37;36.20;99910.66;10291564;28;20050;-80
2022/05/03 10:56:07;;;;;;;39.60;10.75;;;;;;;20.77;36.07;99910.66;10290738;28;20097;-80
2022/05/03 11:01:23;;;;;;;9.77;6.03;;;;;;;20.99;36.27;99899.47;10282127;28;20050;-80
2022/05/03 11:06:26;;;;;;;12.70;7.13;;;;;;;20.64;35.68;99899.59;10280285;28;20571;-80
2022/05/03 11:11:43;;;;;;;9.90;6.65;;;;;;;20.76;36.80;99890.41;10282707;28;20089;-80
2022/05/03 11:17:03;;;;;;;10.95;7.40;;;;;;;20.69;36.98;99889.34;10282429;28;20112;-80
2022/05/03 11:22:13;;;;;;;10.85;7.00;;;;;;;20.93;35.21;99880.66;10285726;28;20061;-81
2022/05/03 11:27:16;;;;;;;14.57;6.25;;;;;;;20.74;36.28;99873.75;10288878;28;20150;-79
2022/05/03 11:32:31;;;;;;;9.68;6.82;;;;;;;20.62;36.12;99867.03;10281280;28;20105;-79
2022/05/03 11:37:34;;;;;;;11.73;6.28;;;;;;;20.22;36.53;99861.41;10284368;28;20050;-79
2022/05/03 11:42:38;;;;;;;13.43;6.90;;;;;;;20.67;36.09;99856.78;10282258;28;20063;-78
2022/05/03 11:47:45;;;;;;;12.02;6.63;;;;;;;20.96;35.68;99843.97;10282124;28;20066;-78
2022/05/03 11:58:10;;;;;;;10.75;5.88;;;;;;;21.02;35.62;99837.16;10291314;28;20456;-79
2022/05/03 12:03:13;;;;;;;11.98;5.65;;;;;;;20.71;35.33;99836.88;10282338;28;20058;-79
2022/05/03 12:08:21;;;;;;;8.70;5.53;;;;;;;20.73;35.83;99834.03;10280695;28;20050;-79
2022/05/03 12:13:23;;;;;;;10.25;5.55;;;;;;;21.08;35.34;99836.53;10280848;28;20055;-79
2022/05/03 12:18:27;;;;;;;11.07;5.85;;;;;;;21.55;35.12;99820.88;10284752;28;20062;-79
2022/05/03 12:23:33;;;;;;;10.32;5.40;;;;;;;21.51;34.26;99822.22;10279919;28;20105;-79
2022/05/03 12:28:36;;;;;;;18.58;5.70;;;;;;;21.57;33.82;99814.41;10280199;28;20059;-79
2022/05/03 12:33:41;;;;;;;11.15;5.80;;;;;;;21.26;34.94;99823.09;10285382;28;20141;-79
2022/05/03 12:38:47;;;;;;;10.50;5.90;;;;;;;21.27;33.34;99820.31;10279292;28;20435;-80
2022/05/03 12:44:09;;;;;;;9.35;5.28;;;;;;;21.29;33.36;99820.16;10283516;28;20638;-79
2022/05/03 12:49:13;;;;;;;10.25;6.00;;;;;;;21.51;33.12;99800.94;10291792;28;20058;-80
2022/05/03 12:54:15;;;;;;;10.30;6.00;;;;;;;21.31;33.22;99799.53;10280564;28;20082;-80
2022/05/03 12:59:18;;;;;;;8.15;4.53;;;;;;;22.00;34.32;99793.78;10281167;28;21157;-80
2022/05/03 13:04:21;;;;;;;21.15;6.45;;;;;;;21.60;32.80;99792.78;10286208;28;20062;-80
2022/05/03 13:09:23;;;;;;;10.82;4.90;;;;;;;21.40;34.23;99786.09;10282166;28;20149;-80
2022/05/03 13:14:31;;;;;;;9.15;4.50;;;;;;;21.54;34.21;99776.63;10282306;28;20065;-80
2022/05/03 13:19:33;;;;;;;13.38;5.10;;;;;;;21.59;33.49;99774.31;10283871;28;20051;-80
2022/05/03 13:24:35;;;;;;;8.73;4.78;;;;;;;21.59;33.58;99774.31;10280608;28;20460;-80
2022/05/03 13:29:37;;;;;;;8.52;4.65;;;;;;;21.44;33.18;99774.13;10283200;28;20054;-80
2022/05/03 13:34:40;;;;;;;752.65;76.65;;;;;;;21.72;33.77;99767.50;10271307;28;20172;-80
2022/05/03 13:45:03;;;;;;;11.88;4.95;;;;;;;21.79;33.29;99759.69;10279373;28;20059;-80
2022/05/03 13:50:05;;;;;;;9.50;4.85;;;;;;;21.95;33.11;99758.81;10278573;28;20082;-80
2022/05/03 13:55:08;;;;;;;5.90;4.05;;;;;;;22.02;33.63;99758.00;10280182;28;20172;-80
2022/05/03 14:00:11;;;;;;;10.27;4.60;;;;;;;22.00;33.30;99760.00;10279366;28;20097;-80
2022/05/03 14:05:13;;;;;;;9.88;4.45;;;;;;;21.79;33.87;99759.69;10275139;28;20398;-80
2022/05/03 14:10:15;;;;;;;10.43;4.20;;;;;;;21.70;34.41;99761.50;10280766;28;20073;-80
2022/05/03 14:15:17;;;;;;;10.70;4.53;;;;;;;21.93;33.75;99761.66;10278946;28;20176;-80
2022/05/03 14:20:19;;;;;;;8.60;4.22;;;;;;;21.91;34.45;99763.66;10281236;28;20051;-80
2022/05/03 14:25:23;;;;;;;8.32;4.10;;;;;;;22.03;33.72;99750.81;10286120;28;20058;-81
2022/05/03 14:30:25;;;;;;;9.20;4.65;;;;;;;21.55;33.36;99752.53;10284964;28;20086;-80
2022/05/03 14:35:26;;;;;;;10.32;5.00;;;;;;;21.21;33.34;99754.47;10282151;28;20157;-82
2022/05/03 14:40:29;;;;;;;9.70;4.50;;;;;;;21.00;33.72;99754.06;10302294;28;20137;-80
2022/05/03 14:45:31;;;;;;;7.00;4.75;;;;;;;20.89;33.30;99749.03;10284809;28;20050;-80
2022/05/03 14:50:34;;;;;;;15.18;4.95;;;;;;;20.97;32.99;99747.25;10286593;28;20166;-80
2022/05/03 14:55:36;;;;;;;8.18;4.30;;;;;;;20.83;33.37;99741.72;10272418;28;20472;-80
2022/05/03 15:05:59;;;;;;;8.18;4.50;;;;;;;20.96;33.73;99734.13;10272081;28;20046;-80
2022/05/03 15:11:01;;;;;;;7.13;4.60;;;;;;;21.29;33.08;99730.53;10274859;28;20081;-80
2022/05/03 15:16:05;;;;;;;7.32;4.32;;;;;;;21.47;33.27;99725.09;10279243;28;20443;-80
2022/05/03 15:21:06;;;;;;;9.70;4.70;;;;;;;21.75;33.07;99723.75;10284278;28;20082;-81
2022/05/03 15:26:10;;;;;;;7.82;4.60;;;;;;;21.92;33.13;99725.41;10283544;28;20055;-80
2022/05/03 15:31:11;;;;;;;13.07;4.45;;;;;;;21.81;32.00;99728.41;10282458;28;20140;-80
2022/05/03 15:36:14;;;;;;;5.40;4.10;;;;;;;21.66;31.90;99724.75;10281578;28;20051;-81
2022/05/03 15:41:16;;;;;;;8.60;4.45;;;;;;;21.37;31.88;99721.75;10279181;28;20129;-80
2022/05/03 15:46:19;;;;;;;10.13;4.70;;;;;;;21.05;32.33;99718.00;10275736;28;20130;-80
2022/05/03 15:51:23;;;;;;;7.22;4.50;;;;;;;20.95;32.33;99725.31;10278418;28;20112;-80
2022/05/03 15:56:25;;;;;;;7.60;4.13;;;;;;;20.98;33.37;99717.03;10281959;28;20508;-80
2022/05/03 16:01:27;;;;;;;6.75;4.10;;;;;;;21.03;33.64;99720.00;10281936;28;20058;-80
2022/05/03 16:06:29;;;;;;;5.70;4.00;;;;;;;21.03;33.36;99721.81;10281333;28;20050;-81
2022/05/03 16:11:32;;;;;;;10.65;4.30;;;;;;;21.09;33.95;99723.84;10281649;28;20078;-80
2022/05/03 16:16:35;;;;;;;8.73;4.10;;;;;;;21.02;33.50;99717.53;10283595;28;20109;-80
2022/05/03 16:21:39;;;;;;;8.10;4.28;;;;;;;20.88;33.25;99716.34;10278821;28;20097;-80
2022/05/03 16:26:42;;;;;;;8.07;3.80;;;;;;;20.83;34.47;99713.31;10286250;28;20113;-80
2022/05/03 16:31:45;;;;;;;5.80;3.90;;;;;;;20.88;35.04;99708.34;10280895;28;20140;-80
2022/05/03 16:42:21;;;;;;;7.28;4.00;;;;;;;20.99;33.33;99709.84;10264134;28;20061;-79
2022/05/03 16:47:25;;;;;;;9.88;5.07;;;;;;;21.13;33.20;99708.41;10259785;28;20109;-79
2022/05/03 16:52:28;;;;;;;7.78;4.97;;;;;;;21.28;32.81;99706.75;10278635;28;20419;-79
2022/05/03 16:57:30;;;;;;;9.00;4.13;;;;;;;21.30;33.04;99707.41;10279654;28;20074;-79
2022/05/03 17:02:31;;;;;;;8.77;4.10;;;;;;;21.26;33.20;99704.25;10277070;28;20749;-79
2022/05/03 17:07:34;;;;;;;6.68;4.20;;;;;;;21.41;33.52;99718.59;10281446;28;20141;-79
2022/05/03 17:12:38;;;;;;;9.32;4.45;;;;;;;21.37;33.24;99711.13;10270411;28;20086;-79
2022/05/03 17:17:40;;;;;;;8.32;4.10;;;;;;;21.17;33.64;99710.53;10271306;28;20429;-79
2022/05/03 17:22:42;;;;;;;6.78;3.65;;;;;;;21.18;35.10;99717.53;10270929;28;20128;-78
2022/05/03 17:27:44;;;;;;;6.03;3.72;;;;;;;20.95;35.62;99722.66;10266353;28;20117;-79
2022/05/03 17:32:52;;;;;;;5.63;3.88;;;;;;;20.78;35.55;99715.66;10282739;28;20050;-79
2022/05/03 17:37:54;;;;;;;6.00;4.10;;;;;;;20.44;34.45;99721.97;10267704;28;20137;-78
2022/05/03 17:42:58;;;;;;;6.75;3.88;;;;;;;20.22;34.88;99732.13;10274568;28;20051;-78
2022/05/03 17:48:00;;;;;;;7.65;4.05;;;;;;;19.84;35.61;99734.38;10271908;28;20149;-78
2022/05/03 17:58:24;;;;;;;7.95;4.28;;;;;;;19.60;37.82;99752.72;10287917;28;20090;-80
2022/05/03 18:03:26;;;;;;;10.07;4.10;;;;;;;19.51;38.65;99750.97;10291592;28;20141;-80
2022/05/03 18:08:29;;;;;;;11.15;3.90;;;;;;;19.40;39.84;99757.34;10299667;28;20062;-80
2022/05/03 18:13:33;;;;;;;7.72;3.85;;;;;;;19.27;40.52;99755.09;10291668;28;20050;-80
2022/05/03 18:18:35;;;;;;;10.25;4.07;;;;;;;18.94;40.42;99755.69;10292514;28;20145;-79
2022/05/03 18:23:38;;;;;;;7.78;4.20;;;;;;;18.80;40.32;99766.81;10289485;28;20101;-80
2022/05/03 18:28:40;;;;;;;8.45;4.15;;;;;;;18.57;38.96;99762.88;10291257;28;20133;-80
2022/05/03 18:33:42;;;;;;;6.70;4.00;;;;;;;18.32;38.97;99769.66;10289087;28;20086;-80
2022/05/03 18:38:44;;;;;;;7.63;3.63;;;;;;;18.16;38.94;99765.91;10289978;28;20055;-80
2022/05/03 18:43:46;;;;;;;6.88;4.05;;;;;;;17.92;38.65;99774.31;10285571;28;20092;-80
2022/05/03 18:48:47;;;;;;;6.85;3.85;;;;;;;17.58;39.84;99789.81;10284099;28;20820;-79
2022/05/03 18:55:40;;;;;;;12.57;4.03;;;;;;;17.45;39.71;99799.81;10287456;28;20143;-79
2022/05/03 18:59:13;;;;;;;6.97;4.15;;;;;;;17.29;41.07;99809.22;10288787;28;20090;-79
2022/05/03 19:04:15;;;;;;;9.43;4.35;;;;;;;17.13;42.29;99806.28;10286602;28;20070;-79
2022/05/03 19:09:17;;;;;;;8.93;4.38;;;;;;;17.00;43.48;99809.16;10286037;28;20615;-79
2022/05/03 19:14:19;;;;;;;8.05;4.20;;;;;;;16.95;41.68;99811.41;10280128;28;20166;-79
2022/05/03 19:19:23;;;;;;;7.63;4.55;;;;;;;16.86;41.44;99826.25;10289186;28;20516;-80
2022/05/03 19:35:09;;;;;;;6.97;4.50;;;;;;;16.62;40.12;99841.56;10286865;28;19980;-80
2022/05/03 19:40:11;;;;;;;8.25;4.13;;;;;;;16.50;40.78;99841.78;10290767;28;20050;-80
2022/05/03 19:45:14;;;;;;;8.55;4.40;;;;;;;16.40;40.04;99836.44;10288689;28;20051;-80
2022/05/03 19:50:17;;;;;;;9.43;4.28;;;;;;;16.29;40.35;99843.56;10288270;28;20082;-80
2022/05/03 19:55:19;;;;;;;8.45;4.60;;;;;;;16.19;40.86;99841.72;10280475;28;20065;-80
2022/05/03 20:00:22;;;;;;;10.07;4.10;;;;;;;16.09;41.05;99859.28;10283228;28;20153;-80
2022/05/03 20:05:25;;;;;;;8.57;4.72;;;;;;;15.97;40.78;99855.03;10285546;28;20634;-80
2022/05/03 20:10:28;;;;;;;10.15;4.68;;;;;;;15.79;40.57;99866.25;10288153;28;20149;-81
2022/05/03 20:15:30;;;;;;;9.52;4.40;;;;;;;15.72;41.58;99858.00;10288878;28;20165;-80
2022/05/03 20:20:32;;;;;;;7.80;4.40;;;;;;;15.75;40.69;99854.28;10284705;28;20050;-80
2022/05/03 20:25:35;;;;;;;6.55;4.25;;;;;;;15.74;40.58;99869.28;10287379;28;20058;-80
2022/05/03 20:30:38;;;;;;;8.45;4.50;;;;;;;15.59;41.10;99869.69;10289415;28;20050;-80
2022/05/03 20:35:41;;;;;;;8.13;4.00;;;;;;;15.48;40.99;99870.53;10290622;28;20065;-80
2022/05/03 20:40:43;;;;;;;6.78;4.03;;;;;;;15.33;41.38;99875.22;10285885;28;20579;-80
2022/05/03 20:45:45;;;;;;;10.43;3.97;;;;;;;15.28;40.98;99890.59;10290365;28;20066;-80
2022/05/03 20:50:46;;;;;;;6.32;4.07;;;;;;;15.11;40.79;99895.50;10288520;28;20183;-80
2022/05/03 20:55:49;;;;;;;7.15;3.95;;;;;;;15.04;41.96;99896.94;10286038;28;20500;-80
2022/05/03 21:01:33;;;;;;;8.57;4.20;;;;;;;14.91;42.11;99904.97;10291084;28;20576;-80
2022/05/03 21:06:13;;;;;;;5.85;3.65;;;;;;;14.86;42.45;99907.09;10287844;28;20595;-80
2022/05/03 21:11:14;;;;;;;6.40;3.50;;;;;;;14.79;43.01;99907.72;10299230;28;20364;-80
2022/05/03 21:16:16;;;;;;;8.65;4.05;;;;;;;14.67;43.97;99920.03;10289344;28;20054;-80
2022/05/03 21:21:19;;;;;;;8.68;4.47;;;;;;;14.49;44.31;99924.88;10288681;28;20062;-80
2022/05/03 21:26:22;;;;;;;6.78;3.83;;;;;;;14.32;44.82;99922.69;10286616;28;20050;-80
2022/05/03 21:31:26;;;;;;;8.23;4.53;;;;;;;14.17;45.15;99920.34;10289044;28;20747;-80
2022/05/03 21:36:28;;;;;;;6.93;4.10;;;;;;;13.94;45.76;99927.31;10288367;28;20051;-80
2022/05/03 21:41:30;;;;;;;7.43;4.40;;;;;;;13.88;46.01;99925.13;10300914;28;20656;-80
2022/05/03 21:46:34;;;;;;;7.90;5.05;;;;;;;13.82;45.87;99933.44;10297794;28;20065;-80
2022/05/03 21:51:37;;;;;;;7.05;4.65;;;;;;;13.62;46.86;99939.31;10296474;28;20050;-80
2022/05/03 21:56:40;;;;;;;9.52;4.88;;;;;;;13.65;47.08;99942.59;10292360;28;20054;-80
2022/05/03 22:01:42;;;;;;;8.43;4.80;;;;;;;13.70;46.99;99937.81;10302394;28;20393;-80
2022/05/03 22:06:45;;;;;;;6.85;4.70;;;;;;;13.71;47.30;99936.03;10294997;28;20053;-80
2022/05/03 22:11:47;;;;;;;7.07;4.60;;;;;;;13.48;47.64;99932.44;10297993;28;20054;-80
2022/05/03 22:16:49;;;;;;;6.43;4.50;;;;;;;13.40;47.88;99941.78;10295548;28;20109;-80
2022/05/03 22:21:52;;;;;;;9.80;4.78;;;;;;;13.36;48.04;99951.66;10294352;28;20058;-80
2022/05/03 22:26:54;;;;;;;7.28;4.32;;;;;;;13.07;48.95;99944.16;10294317;28;20058;-80
2022/05/03 22:31:56;;;;;;;8.77;4.65;;;;;;;13.09;48.89;99953.59;10295610;28;20114;-79
2022/05/03 22:36:57;;;;;;;7.18;4.28;;;;;;;13.21;48.92;99962.44;10298031;28;20097;-80
2022/05/03 22:41:59;;;;;;;6.40;4.70;;;;;;;13.28;48.98;99963.66;10295394;28;20123;-80
2022/05/03 22:47:01;;;;;;;7.68;4.72;;;;;;;13.23;49.39;99956.09;10291354;28;20054;-80
2022/05/03 22:52:05;;;;;;;8.70;4.55;;;;;;;13.13;49.62;99956.88;10292299;28;20062;-80
2022/05/03 22:57:07;;;;;;;9.52;4.25;;;;;;;13.14;49.61;99956.75;10291987;28;20511;-80
2022/05/03 23:02:08;;;;;;;8.02;4.35;;;;;;;13.21;49.47;99959.81;10290780;28;20050;-80
2022/05/03 23:07:10;;;;;;;8.23;4.30;;;;;;;13.24;49.81;99962.19;10292303;28;20511;-80
2022/05/03 23:12:12;;;;;;;6.55;4.25;;;;;;;13.18;49.96;99950.34;10291872;28;20058;-80
2022/05/03 23:17:14;;;;;;;6.22;4.38;;;;;;;13.08;50.03;99959.81;10292591;28;20968;-80
2022/05/03 23:22:17;;;;;;;6.65;4.60;;;;;;;13.05;50.47;99956.56;10293493;28;20137;-80
2022/05/03 23:27:18;;;;;;;8.32;4.50;;;;;;;13.08;50.24;99956.34;10292172;28;20057;-80
2022/05/03 23:32:20;;;;;;;8.00;4.13;;;;;;;13.17;50.20;99958.34;10293235;28;20129;-80
2022/05/03 23:37:25;;;;;;;6.05;4.53;;;;;;;13.19;50.45;99959.06;10291093;28;20108;-80
2022/05/03 23:42:26;;;;;;;5.88;4.10;;;;;;;13.05;50.86;99956.56;10290133;28;20062;-80
2022/05/03 23:47:28;;;;;;;6.70;4.80;;;;;;;13.02;51.07;99947.09;10291363;28;20058;-80
2022/05/03 23:52:30;;;;;;;7.63;4.93;;;;;;;13.07;51.05;99941.53;10294249;28;20136;-80
2022/05/03 23:57:32;;;;;;;7.40;4.80;;;;;;;13.00;51.26;99949.00;10290494;28;20105;-80
